createdAt,value
2019-05-13T00:01:28.740Z,72.72
2019-05-13T00:06:34.378Z,72.80
2019-05-13T00:11:37.475Z,73.45
2019-05-13T00:16:41.095Z,72.91
2019-05-13T00:21:44.648Z,72.98
2019-05-13T00:26:48.082Z,72.88
2019-05-13T00:31:53.867Z,73.80
2019-05-13T00:37:07.880Z,73.91
2019-05-13T00:42:04.060Z,74.28
2019-05-13T00:47:07.647Z,74.37
2019-05-13T00:52:14.398Z,73.70
2019-05-13T00:57:18.094Z,74.10
2019-05-13T01:02:21.524Z,74.60
2019-05-13T01:07:28.747Z,74.28
2019-05-13T01:12:30.163Z,74.96
2019-05-13T01:17:34.096Z,74.92
2019-05-13T01:22:37.623Z,75.19
2019-05-13T01:27:44.424Z,74.80
2019-05-13T01:32:48.000Z,75.66
2019-05-13T01:37:53.676Z,76.22
2019-05-13T01:42:56.564Z,77.47
2019-05-13T01:47:59.980Z,77.91
2019-05-13T01:53:04.470Z,77.25
2019-05-13T01:58:08.127Z,75.98
2019-05-13T02:03:14.139Z,76.35
2019-05-13T02:08:16.706Z,77.29
2019-05-13T02:13:20.187Z,78.48
2019-05-13T02:18:24.626Z,78.79
2019-05-13T02:23:28.244Z,78.47
2019-05-13T02:28:33.438Z,78.56
2019-05-13T02:33:37.039Z,78.71
2019-05-13T02:38:42.732Z,79.35
2019-05-13T02:43:45.802Z,79.28
2019-05-13T02:48:52.521Z,78.66
2019-05-13T02:53:54.408Z,77.96
2019-05-13T02:58:57.840Z,78.98
2019-05-13T03:04:03.104Z,78.06
2019-05-13T03:09:07.609Z,77.75
2019-05-13T03:14:12.747Z,78.66
2019-05-13T03:19:16.199Z,79.04
2019-05-13T03:24:22.781Z,78.01
2019-05-13T03:29:24.786Z,77.94
2019-05-13T03:34:28.209Z,77.75
2019-05-13T03:39:33.415Z,78.10
2019-05-13T03:44:38.706Z,77.59
2019-05-13T03:49:44.506Z,78.07
2019-05-13T03:54:48.386Z,79.06
2019-05-13T03:59:52.772Z,78.02
2019-05-13T04:04:58.993Z,78.69
2019-05-13T04:10:03.261Z,77.46
2019-05-13T04:15:08.032Z,76.82
2019-05-13T04:20:12.560Z,77.64
2019-05-13T04:25:16.359Z,77.60
2019-05-13T04:30:22.996Z,77.24
2019-05-13T04:35:28.384Z,78.40
2019-05-13T04:40:33.186Z,78.86
2019-05-13T04:45:36.924Z,78.12
2019-05-13T04:50:43.143Z,77.04
2019-05-13T04:55:45.681Z,76.81
2019-05-13T05:01:15.887Z,78.23
2019-05-13T05:06:22.890Z,78.52
2019-05-13T05:11:44.054Z,77.94
2019-05-13T05:16:52.284Z,78.10
2019-05-13T05:22:16.918Z,77.96
2019-05-13T05:27:35.452Z,77.84
2019-05-13T05:32:44.864Z,78.77
2019-05-13T05:38:07.794Z,78.78
2019-05-13T05:43:12.566Z,78.15
2019-05-13T05:48:17.693Z,77.69
2019-05-13T05:53:24.919Z,77.31
2019-05-13T05:58:31.582Z,78.12
2019-05-13T06:03:38.339Z,78.12
2019-05-13T06:08:42.311Z,78.44
2019-05-13T06:13:45.881Z,78.74
2019-05-13T06:18:49.755Z,81.00
2019-05-13T06:23:55.642Z,79.75
2019-05-13T06:28:59.233Z,84.14
2019-05-13T06:34:02.735Z,81.58
2019-05-13T06:39:09.003Z,78.63
2019-05-13T06:44:12.592Z,86.11
2019-05-13T06:49:16.025Z,82.09
2019-05-13T06:54:21.751Z,83.66
2019-05-13T06:59:24.672Z,81.95
2019-05-13T07:04:28.362Z,80.89
2019-05-13T07:09:32.517Z,78.74
2019-05-13T07:14:36.312Z,74.73
2019-05-13T07:19:41.508Z,77.89
2019-05-13T07:24:44.884Z,74.53
2019-05-13T07:29:53.597Z,75.98
2019-05-13T07:34:56.365Z,70.88
2019-05-13T07:40:02.355Z,68.90
2019-05-13T07:45:06.516Z,65.96
2019-05-13T07:50:12.695Z,65.84
2019-05-13T07:55:15.810Z,64.27
2019-05-13T08:00:21.731Z,63.10
2019-05-13T08:05:25.404Z,61.61
2019-05-13T08:10:28.892Z,62.02
2019-05-13T08:15:32.322Z,56.64
2019-05-13T08:20:35.747Z,55.99
2019-05-13T08:25:39.178Z,55.51
2019-05-13T08:30:43.072Z,55.29
2019-05-13T08:35:47.215Z,55.03
2019-05-13T08:40:51.802Z,54.74
2019-05-13T08:45:58.510Z,52.57
2019-05-13T08:51:03.221Z,47.74
2019-05-13T08:56:06.975Z,50.16
2019-05-13T09:01:12.404Z,46.35
2019-05-13T09:06:15.627Z,47.93
2019-05-13T09:11:19.143Z,45.30
2019-05-13T09:16:22.561Z,40.93
2019-05-13T09:21:26.057Z,44.10
2019-05-13T09:26:31.598Z,43.18
2019-05-13T09:31:34.886Z,42.96
2019-05-13T09:36:38.342Z,42.30
2019-05-13T09:41:45.452Z,42.03
2019-05-13T09:46:51.482Z,38.89
2019-05-13T09:51:54.027Z,39.33
2019-05-13T09:56:57.471Z,36.61
2019-05-13T10:02:03.171Z,37.62
2019-05-13T10:07:07.082Z,36.70
2019-05-13T10:12:12.163Z,36.60
2019-05-13T10:17:15.895Z,31.50
2019-05-13T10:22:21.333Z,34.84
2019-05-13T10:27:26.064Z,35.46
2019-05-13T10:32:32.236Z,30.55
2019-05-13T10:37:34.963Z,31.17
2019-05-13T10:42:38.475Z,33.42
2019-05-13T10:47:42.447Z,32.89
2019-05-13T10:52:45.916Z,31.25
2019-05-13T10:57:51.338Z,30.26
2019-05-13T11:02:54.932Z,30.66
2019-05-13T11:07:58.636Z,30.11
2019-05-13T11:13:06.050Z,30.11
2019-05-13T11:18:11.762Z,29.83
2019-05-13T11:23:12.755Z,30.05
2019-05-13T11:28:16.188Z,29.09
2019-05-13T11:33:22.371Z,29.14
2019-05-13T11:38:27.517Z,28.41
2019-05-13T11:43:33.132Z,28.90
2019-05-13T11:48:36.220Z,27.52
2019-05-13T11:53:41.657Z,27.26
2019-05-13T11:58:45.349Z,24.65
2019-05-13T12:03:48.770Z,27.44
2019-05-13T12:08:55.202Z,27.52
2019-05-13T12:13:57.486Z,29.43
2019-05-13T12:19:03.455Z,29.59
2019-05-13T12:24:10.334Z,28.72
2019-05-13T12:29:18.534Z,29.91
2019-05-13T12:34:16.915Z,30.03
2019-05-13T12:39:23.891Z,28.81
2019-05-13T12:44:25.659Z,27.17
2019-05-13T12:49:33.631Z,26.35
2019-05-13T12:54:37.429Z,26.29
2019-05-13T12:59:53.819Z,23.33
2019-05-13T13:05:10.560Z,26.61
2019-05-13T13:10:28.021Z,27.64
2019-05-13T13:15:41.931Z,25.88
2019-05-13T13:21:00.282Z,25.78
2019-05-13T13:26:03.061Z,25.33
2019-05-13T13:31:08.715Z,24.29
2019-05-13T13:36:15.621Z,25.08
2019-05-13T13:41:24.822Z,25.72
2019-05-13T13:46:41.277Z,25.47
2019-05-13T13:51:34.570Z,26.67
2019-05-13T13:56:38.111Z,26.34
2019-05-13T14:01:41.759Z,26.17
2019-05-13T14:11:51.553Z,25.49
2019-05-13T14:16:55.323Z,23.64
2019-05-13T14:21:58.724Z,25.11
2019-05-13T14:27:03.104Z,25.98
2019-05-13T14:32:06.755Z,26.96
2019-05-13T14:37:11.663Z,25.74
2019-05-13T14:42:15.646Z,25.55
2019-05-13T14:47:19.105Z,26.14
2019-05-13T14:52:24.273Z,25.28
2019-05-13T14:57:32.273Z,25.87
2019-05-13T15:02:37.444Z,25.52
2019-05-13T15:07:42.119Z,26.70
2019-05-13T15:12:47.489Z,27.03
2019-05-13T15:17:53.840Z,26.95
2019-05-13T15:22:57.417Z,26.09
2019-05-13T15:28:02.929Z,26.87
2019-05-13T15:33:06.176Z,26.58
2019-05-13T15:38:12.316Z,26.74
2019-05-13T15:43:14.847Z,28.22
2019-05-13T15:48:22.240Z,27.05
2019-05-13T15:53:26.132Z,28.68
2019-05-13T15:58:39.013Z,28.11
2019-05-13T16:03:36.496Z,28.06
2019-05-13T16:08:43.089Z,27.62
2019-05-13T16:13:45.200Z,26.81
2019-05-13T16:18:48.625Z,28.29
2019-05-13T16:23:52.246Z,28.13
2019-05-13T16:28:55.972Z,28.03
2019-05-13T16:34:01.555Z,28.97
2019-05-13T16:39:06.679Z,29.10
2019-05-13T16:44:11.972Z,29.02
2019-05-13T16:49:15.703Z,29.95
2019-05-13T16:54:21.787Z,29.40
2019-05-13T16:59:24.374Z,29.40
2019-05-13T17:04:27.826Z,30.98
2019-05-13T17:09:32.319Z,30.69
2019-05-13T17:14:36.003Z,31.37
2019-05-13T17:19:39.423Z,31.54
2019-05-13T17:24:43.639Z,31.92
2019-05-13T17:29:47.151Z,32.23
2019-05-13T17:34:51.558Z,33.52
2019-05-13T17:39:55.116Z,33.63
2019-05-13T17:44:58.547Z,34.06
2019-05-13T17:50:02.202Z,35.03
2019-05-13T17:55:07.524Z,35.12
2019-05-13T18:00:13.031Z,35.14
2019-05-13T18:05:18.224Z,36.37
2019-05-13T18:10:22.574Z,36.13
2019-05-13T18:15:26.175Z,37.09
2019-05-13T18:20:29.605Z,37.88
2019-05-13T18:25:33.043Z,37.80
2019-05-13T18:30:36.478Z,38.86
2019-05-13T18:35:41.884Z,38.56
2019-05-13T18:40:45.060Z,40.17
2019-05-13T18:45:48.465Z,40.02
2019-05-13T18:50:52.445Z,39.73
2019-05-13T18:55:56.004Z,41.50
2019-05-13T19:01:01.329Z,41.45
2019-05-13T19:06:05.085Z,43.33
2019-05-13T19:11:08.579Z,43.64
2019-05-13T19:16:12.082Z,43.87
2019-05-13T19:21:15.529Z,45.21
2019-05-13T19:26:18.953Z,44.68
2019-05-13T19:31:22.384Z,45.88
2019-05-13T19:36:25.816Z,45.96
2019-05-13T19:41:31.390Z,46.12
2019-05-13T19:46:34.410Z,46.42
2019-05-13T19:51:37.871Z,46.55
2019-05-13T19:56:41.334Z,47.68
2019-05-13T20:01:44.751Z,46.53
2019-05-13T20:06:48.213Z,46.83
2019-05-13T20:11:55.343Z,46.07
2019-05-13T20:16:57.728Z,46.39
2019-05-13T20:22:02.370Z,46.84
2019-05-13T20:27:06.068Z,46.67
2019-05-13T20:32:11.634Z,45.94
2019-05-13T20:37:15.103Z,46.96
2019-05-13T20:42:20.301Z,46.95
2019-05-13T20:47:23.783Z,46.90
2019-05-13T20:52:27.218Z,47.60
2019-05-13T20:57:32.358Z,48.37
2019-05-13T21:02:35.994Z,49.11
2019-05-13T21:07:41.720Z,50.25
2019-05-13T21:12:44.647Z,51.04
2019-05-13T21:17:48.195Z,51.85
2019-05-13T21:22:51.781Z,51.82
2019-05-13T21:27:55.135Z,52.75
2019-05-13T21:32:58.660Z,53.96
2019-05-13T21:38:02.126Z,53.36
2019-05-13T21:43:05.574Z,53.72
2019-05-13T21:48:10.976Z,54.31
2019-05-13T21:53:14.169Z,54.63
2019-05-13T21:58:17.601Z,54.36
2019-05-13T22:03:21.078Z,54.89
2019-05-13T22:08:24.515Z,55.39
2019-05-13T22:13:31.542Z,55.99
2019-05-13T22:18:35.234Z,57.05
2019-05-13T22:23:38.629Z,57.02
2019-05-13T22:28:42.042Z,57.37
2019-05-13T22:33:45.483Z,58.41
2019-05-13T22:38:48.919Z,57.38
2019-05-13T22:43:58.377Z,57.37
2019-05-13T22:48:58.139Z,57.91
2019-05-13T22:54:01.593Z,58.37
2019-05-13T22:59:05.113Z,59.28
2019-05-13T23:04:08.602Z,60.45
2019-05-13T23:09:12.610Z,60.00
2019-05-13T23:14:16.080Z,60.62
2019-05-13T23:19:21.534Z,60.41
2019-05-13T23:24:24.630Z,60.79
2019-05-13T23:29:28.072Z,60.38
2019-05-13T23:34:31.967Z,60.46
2019-05-13T23:39:35.618Z,60.67
2019-05-13T23:44:41.210Z,60.49
2019-05-13T23:49:44.215Z,61.59
2019-05-13T23:54:47.627Z,62.68
2019-05-13T23:59:51.266Z,63.19
